Montegut, Louisiana
Current Conditions -  °F | °C
As of 12:55 AM on Friday 28 Nov 2014 (Local Time) from KHUM Reporting Station
Clear Clear  
Wind Chill: 40°   Ceiling: Unl
Heat Index: 40°   Visibility: 7mi
Dew Point: 36°   Wind: 0mph
Humidity: 86%   Direction: NA
Pressure: 30.42"   Gusts: NA
Location:  29.47°N, 90.56°W
Report Text: KHUM 280655Z AUTO 00000KT 7SM CLR 04/02 A3042 RMK AO2 T00430022
Loading
Personal Weather Stations






























Interactive Weather Map New forecast layout! Learn more

10-Day Weather Forecast

Advertisements
Track Severe Weather on mobile